sensor_id;sensor_type;location;lat;lon;timestamp;temperature;humidity
77052;SHT30;65980;44.898;8.602;2023-06-04T00:01:28;19.69;77.68
77052;SHT30;65980;44.898;8.602;2023-06-04T00:04:32;19.59;78.17
77052;SHT30;65980;44.898;8.602;2023-06-04T00:07:36;19.52;78.56
77052;SHT30;65980;44.898;8.602;2023-06-04T00:10:51;19.39;78.95
77052;SHT30;65980;44.898;8.602;2023-06-04T00:17:40;19.21;79.72
77052;SHT30;65980;44.898;8.602;2023-06-04T00:20:46;18.97;80.46
77052;SHT30;65980;44.898;8.602;2023-06-04T00:28:17;18.97;80.03
77052;SHT30;65980;44.898;8.602;2023-06-04T00:35:52;19.04;79.84
77052;SHT30;65980;44.898;8.602;2023-06-04T00:39:08;18.97;79.76
77052;SHT30;65980;44.898;8.602;2023-06-04T00:43:22;18.70;80.56
77052;SHT30;65980;44.898;8.602;2023-06-04T00:47:01;18.92;79.68
77052;SHT30;65980;44.898;8.602;2023-06-04T00:54:09;18.80;79.25
77052;SHT30;65980;44.898;8.602;2023-06-04T00:57:27;18.68;79.49
77052;SHT30;65980;44.898;8.602;2023-06-04T01:00:34;18.37;80.24
77052;SHT30;65980;44.898;8.602;2023-06-04T01:07:36;18.83;77.48
77052;SHT30;65980;44.898;8.602;2023-06-04T01:18:00;18.63;76.88
77052;SHT30;65980;44.898;8.602;2023-06-04T01:24:51;18.59;76.74
77052;SHT30;65980;44.898;8.602;2023-06-04T01:28:58;18.62;76.99
77052;SHT30;65980;44.898;8.602;2023-06-04T01:32:03;18.53;77.07
77052;SHT30;65980;44.898;8.602;2023-06-04T01:35:08;18.38;77.72
77052;SHT30;65980;44.898;8.602;2023-06-04T01:42:41;18.00;79.22
77052;SHT30;65980;44.898;8.602;2023-06-04T01:50:05;18.18;78.58
77052;SHT30;65980;44.898;8.602;2023-06-04T01:53:43;18.24;78.09
77052;SHT30;65980;44.898;8.602;2023-06-04T01:57:07;17.94;79.14
77052;SHT30;65980;44.898;8.602;2023-06-04T02:00:15;17.78;80.77
77052;SHT30;65980;44.898;8.602;2023-06-04T02:03:26;17.69;82.35
77052;SHT30;65980;44.898;8.602;2023-06-04T02:06:34;17.39;83.79
77052;SHT30;65980;44.898;8.602;2023-06-04T02:09:49;17.55;83.54
77052;SHT30;65980;44.898;8.602;2023-06-04T02:16:28;17.31;84.67
77052;SHT30;65980;44.898;8.602;2023-06-04T02:19:32;17.39;84.51
77052;SHT30;65980;44.898;8.602;2023-06-04T02:22:41;17.52;83.93
77052;SHT30;65980;44.898;8.602;2023-06-04T02:25:47;17.61;83.67
77052;SHT30;65980;44.898;8.602;2023-06-04T02:33:19;17.99;82.46
77052;SHT30;65980;44.898;8.602;2023-06-04T02:44:58;18.27;80.89
77052;SHT30;65980;44.898;8.602;2023-06-04T02:48:03;18.30;80.70
77052;SHT30;65980;44.898;8.602;2023-06-04T02:51:13;18.34;80.36
77052;SHT30;65980;44.898;8.602;2023-06-04T02:54:53;18.30;80.26
77052;SHT30;65980;44.898;8.602;2023-06-04T02:57:57;18.35;80.09
77052;SHT30;65980;44.898;8.602;2023-06-04T03:05:26;18.21;80.26
77052;SHT30;65980;44.898;8.602;2023-06-04T03:08:32;18.35;79.99
77052;SHT30;65980;44.898;8.602;2023-06-04T03:11:41;18.47;79.58
77052;SHT30;65980;44.898;8.602;2023-06-04T03:14:53;18.48;79.49
77052;SHT30;65980;44.898;8.602;2023-06-04T03:17:57;18.58;78.85
77052;SHT30;65980;44.898;8.602;2023-06-04T03:21:05;18.27;78.60
77052;SHT30;65980;44.898;8.602;2023-06-04T03:24:13;17.93;79.82
77052;SHT30;65980;44.898;8.602;2023-06-04T03:30:48;17.76;82.00
77052;SHT30;65980;44.898;8.602;2023-06-04T03:33:54;17.25;81.84
77052;SHT30;65980;44.898;8.602;2023-06-04T03:37:01;17.31;82.40
77052;SHT30;65980;44.898;8.602;2023-06-04T03:40:09;17.45;81.87
77052;SHT30;65980;44.898;8.602;2023-06-04T03:43:26;17.59;81.64
77052;SHT30;65980;44.898;8.602;2023-06-04T03:46:39;17.36;81.57
77052;SHT30;65980;44.898;8.602;2023-06-04T03:49:47;17.45;81.03
77052;SHT30;65980;44.898;8.602;2023-06-04T03:53:09;17.55;80.53
77052;SHT30;65980;44.898;8.602;2023-06-04T04:07:36;16.69;83.77
77052;SHT30;65980;44.898;8.602;2023-06-04T04:10:41;16.79;83.54
77052;SHT30;65980;44.898;8.602;2023-06-04T04:13:45;16.76;83.39
77052;SHT30;65980;44.898;8.602;2023-06-04T04:16:54;16.61;82.98
77052;SHT30;65980;44.898;8.602;2023-06-04T04:20:08;16.63;83.27
77052;SHT30;65980;44.898;8.602;2023-06-04T04:31:17;16.97;82.78
77052;SHT30;65980;44.898;8.602;2023-06-04T04:34:29;17.07;81.69
77052;SHT30;65980;44.898;8.602;2023-06-04T04:37:44;17.10;81.89
77052;SHT30;65980;44.898;8.602;2023-06-04T04:41:08;17.14;82.16
77052;SHT30;65980;44.898;8.602;2023-06-04T04:44:19;17.10;81.88
77052;SHT30;65980;44.898;8.602;2023-06-04T04:55:17;17.49;80.78
77052;SHT30;65980;44.898;8.602;2023-06-04T04:58:48;17.58;80.64
77052;SHT30;65980;44.898;8.602;2023-06-04T05:02:15;17.55;80.80
77052;SHT30;65980;44.898;8.602;2023-06-04T05:05:46;17.72;80.15
77052;SHT30;65980;44.898;8.602;2023-06-04T05:08:59;17.87;79.73
77052;SHT30;65980;44.898;8.602;2023-06-04T05:12:35;17.91;79.55
77052;SHT30;65980;44.898;8.602;2023-06-04T05:15:49;17.87;80.10
77052;SHT30;65980;44.898;8.602;2023-06-04T05:19:11;17.94;79.45
77052;SHT30;65980;44.898;8.602;2023-06-04T05:22:51;18.03;78.95
77052;SHT30;65980;44.898;8.602;2023-06-04T05:26:15;17.45;81.27
77052;SHT30;65980;44.898;8.602;2023-06-04T05:29:20;17.31;82.02
77052;SHT30;65980;44.898;8.602;2023-06-04T05:32:27;17.65;81.32
77052;SHT30;65980;44.898;8.602;2023-06-04T05:39:29;18.41;78.62
77052;SHT30;65980;44.898;8.602;2023-06-04T05:42:50;18.41;79.03
77052;SHT30;65980;44.898;8.602;2023-06-04T05:45:53;18.61;77.98
77052;SHT30;65980;44.898;8.602;2023-06-04T05:49:27;18.70;78.53
77052;SHT30;65980;44.898;8.602;2023-06-04T05:56:11;18.77;78.54
77052;SHT30;65980;44.898;8.602;2023-06-04T06:03:23;18.85;78.53
77052;SHT30;65980;44.898;8.602;2023-06-04T06:10:14;19.39;77.17
77052;SHT30;65980;44.898;8.602;2023-06-04T06:13:58;19.21;78.23
77052;SHT30;65980;44.898;8.602;2023-06-04T06:17:05;18.69;80.16
77052;SHT30;65980;44.898;8.602;2023-06-04T06:20:25;19.00;79.57
77052;SHT30;65980;44.898;8.602;2023-06-04T06:23:29;19.42;77.85
77052;SHT30;65980;44.898;8.602;2023-06-04T06:26:37;19.20;78.66
77052;SHT30;65980;44.898;8.602;2023-06-04T06:29:51;18.97;78.78
77052;SHT30;65980;44.898;8.602;2023-06-04T06:33:02;18.92;79.55
77052;SHT30;65980;44.898;8.602;2023-06-04T06:36:07;19.00;79.49
77052;SHT30;65980;44.898;8.602;2023-06-04T06:39:20;19.17;79.04
77052;SHT30;65980;44.898;8.602;2023-06-04T06:42:25;19.11;79.18
77052;SHT30;65980;44.898;8.602;2023-06-04T06:45:31;19.44;78.42
77052;SHT30;65980;44.898;8.602;2023-06-04T06:49:05;19.59;77.81
77052;SHT30;65980;44.898;8.602;2023-06-04T06:55:42;20.25;75.85
77052;SHT30;65980;44.898;8.602;2023-06-04T06:58:47;20.25;76.32
77052;SHT30;65980;44.898;8.602;2023-06-04T07:01:55;20.61;74.97
77052;SHT30;65980;44.898;8.602;2023-06-04T07:05:00;20.76;73.90
77052;SHT30;65980;44.898;8.602;2023-06-04T07:08:04;20.85;73.54
77052;SHT30;65980;44.898;8.602;2023-06-04T07:11:11;20.97;73.04
77052;SHT30;65980;44.898;8.602;2023-06-04T07:14:19;21.00;72.22
77052;SHT30;65980;44.898;8.602;2023-06-04T07:17:25;20.89;73.18
77052;SHT30;65980;44.898;8.602;2023-06-04T07:20:31;21.37;72.00
77052;SHT30;65980;44.898;8.602;2023-06-04T07:23:36;21.69;70.28
77052;SHT30;65980;44.898;8.602;2023-06-04T07:26:43;21.79;70.38
77052;SHT30;65980;44.898;8.602;2023-06-04T07:29:49;21.94;69.44
77052;SHT30;65980;44.898;8.602;2023-06-04T07:33:06;22.00;68.52
77052;SHT30;65980;44.898;8.602;2023-06-04T07:36:14;22.33;67.59
77052;SHT30;65980;44.898;8.602;2023-06-04T07:39:19;22.58;67.53
77052;SHT30;65980;44.898;8.602;2023-06-04T07:42:24;22.64;67.15
77052;SHT30;65980;44.898;8.602;2023-06-04T07:45:27;22.71;66.83
77052;SHT30;65980;44.898;8.602;2023-06-04T07:48:35;23.03;65.19
77052;SHT30;65980;44.898;8.602;2023-06-04T07:51:38;23.28;63.97
77052;SHT30;65980;44.898;8.602;2023-06-04T07:54:52;23.13;63.75
77052;SHT30;65980;44.898;8.602;2023-06-04T07:58:02;22.99;64.53
77052;SHT30;65980;44.898;8.602;2023-06-04T08:01:20;22.57;65.46
77052;SHT30;65980;44.898;8.602;2023-06-04T08:04:25;22.65;64.37
77052;SHT30;65980;44.898;8.602;2023-06-04T08:07:52;23.03;63.61
77052;SHT30;65980;44.898;8.602;2023-06-04T08:11:02;23.27;63.11
77052;SHT30;65980;44.898;8.602;2023-06-04T08:14:06;23.47;61.54
77052;SHT30;65980;44.898;8.602;2023-06-04T08:17:32;23.69;61.43
77052;SHT30;65980;44.898;8.602;2023-06-04T08:20:47;23.71;60.76
77052;SHT30;65980;44.898;8.602;2023-06-04T08:24:13;23.68;60.69
77052;SHT30;65980;44.898;8.602;2023-06-04T08:27:43;23.96;61.35
77052;SHT30;65980;44.898;8.602;2023-06-04T08:31:09;24.37;59.51
77052;SHT30;65980;44.898;8.602;2023-06-04T08:34:49;24.45;58.05
77052;SHT30;65980;44.898;8.602;2023-06-04T08:37:56;24.78;56.43
77052;SHT30;65980;44.898;8.602;2023-06-04T08:41:53;24.65;56.58
77052;SHT30;65980;44.898;8.602;2023-06-04T08:45:09;24.37;56.37
77052;SHT30;65980;44.898;8.602;2023-06-04T08:48:15;23.78;58.84
77052;SHT30;65980;44.898;8.602;2023-06-04T08:58:47;23.00;60.29
77052;SHT30;65980;44.898;8.602;2023-06-04T09:03:06;22.81;61.11
77052;SHT30;65980;44.898;8.602;2023-06-04T09:06:15;22.99;60.13
77052;SHT30;65980;44.898;8.602;2023-06-04T09:09:48;23.57;59.49
77052;SHT30;65980;44.898;8.602;2023-06-04T09:13:59;23.62;59.08
77052;SHT30;65980;44.898;8.602;2023-06-04T09:17:08;23.59;60.11
77052;SHT30;65980;44.898;8.602;2023-06-04T09:20:22;23.65;60.60
77052;SHT30;65980;44.898;8.602;2023-06-04T09:23:31;23.36;61.48
77052;SHT30;65980;44.898;8.602;2023-06-04T09:30:16;23.17;62.80
77052;SHT30;65980;44.898;8.602;2023-06-04T09:41:17;23.43;62.02
77052;SHT30;65980;44.898;8.602;2023-06-04T09:45:05;24.05;60.26
77052;SHT30;65980;44.898;8.602;2023-06-04T09:52:07;24.33;59.20
77052;SHT30;65980;44.898;8.602;2023-06-04T09:55:17;24.05;59.60
77052;SHT30;65980;44.898;8.602;2023-06-04T09:58:40;23.98;60.09
77052;SHT30;65980;44.898;8.602;2023-06-04T10:01:56;24.09;59.41
77052;SHT30;65980;44.898;8.602;2023-06-04T10:05:04;24.12;59.35
77052;SHT30;65980;44.898;8.602;2023-06-04T10:08:16;23.71;59.46
77052;SHT30;65980;44.898;8.602;2023-06-04T10:14:59;23.78;59.49
77052;SHT30;65980;44.898;8.602;2023-06-04T10:19:11;23.76;59.37
77052;SHT30;65980;44.898;8.602;2023-06-04T10:22:48;23.83;59.31
77052;SHT30;65980;44.898;8.602;2023-06-04T10:25:58;23.83;58.66
77052;SHT30;65980;44.898;8.602;2023-06-04T10:29:49;24.05;58.22
77052;SHT30;65980;44.898;8.602;2023-06-04T10:33:54;23.95;58.58
77052;SHT30;65980;44.898;8.602;2023-06-04T10:37:29;24.16;58.42
77052;SHT30;65980;44.898;8.602;2023-06-04T10:44:45;24.12;58.12
77052;SHT30;65980;44.898;8.602;2023-06-04T10:48:01;24.37;57.48
77052;SHT30;65980;44.898;8.602;2023-06-04T10:51:13;24.09;58.06
77052;SHT30;65980;44.898;8.602;2023-06-04T10:54:28;24.41;57.58
77052;SHT30;65980;44.898;8.602;2023-06-04T10:57:50;24.34;57.86
77052;SHT30;65980;44.898;8.602;2023-06-04T11:01:32;24.60;57.34
77052;SHT30;65980;44.898;8.602;2023-06-04T11:04:35;25.24;55.77
77052;SHT30;65980;44.898;8.602;2023-06-04T11:12:05;27.46;50.85
77052;SHT30;65980;44.898;8.602;2023-06-04T11:15:45;27.65;49.52
77052;SHT30;65980;44.898;8.602;2023-06-04T11:18:57;26.81;51.32
77052;SHT30;65980;44.898;8.602;2023-06-04T11:22:01;26.67;51.56
77052;SHT30;65980;44.898;8.602;2023-06-04T11:25:05;27.23;51.03
77052;SHT30;65980;44.898;8.602;2023-06-04T11:28:17;26.85;51.85
77052;SHT30;65980;44.898;8.602;2023-06-04T11:31:25;26.50;52.85
77052;SHT30;65980;44.898;8.602;2023-06-04T11:34:30;26.23;53.53
77052;SHT30;65980;44.898;8.602;2023-06-04T11:37:40;26.12;53.57
77052;SHT30;65980;44.898;8.602;2023-06-04T11:40:56;25.61;55.47
77052;SHT30;65980;44.898;8.602;2023-06-04T11:44:22;25.36;55.66
77052;SHT30;65980;44.898;8.602;2023-06-04T11:51:33;25.31;55.90
77052;SHT30;65980;44.898;8.602;2023-06-04T11:58:27;25.09;56.79
77052;SHT30;65980;44.898;8.602;2023-06-04T12:01:35;24.67;57.83
77052;SHT30;65980;44.898;8.602;2023-06-04T12:04:40;24.58;57.79
77052;SHT30;65980;44.898;8.602;2023-06-04T12:15:02;24.85;57.18
77052;SHT30;65980;44.898;8.602;2023-06-04T12:18:45;25.02;55.93
77052;SHT30;65980;44.898;8.602;2023-06-04T12:22:00;25.15;56.55
77052;SHT30;65980;44.898;8.602;2023-06-04T12:28:59;25.12;56.95
77052;SHT30;65980;44.898;8.602;2023-06-04T12:32:36;25.23;56.99
77052;SHT30;65980;44.898;8.602;2023-06-04T12:35:47;24.83;57.93
77052;SHT30;65980;44.898;8.602;2023-06-04T12:38:57;24.98;57.74
77052;SHT30;65980;44.898;8.602;2023-06-04T12:42:09;25.10;57.80
77052;SHT30;65980;44.898;8.602;2023-06-04T12:45:22;25.45;57.23
77052;SHT30;65980;44.898;8.602;2023-06-04T12:56:41;25.27;56.28
77052;SHT30;65980;44.898;8.602;2023-06-04T12:59:57;25.86;55.29
77052;SHT30;65980;44.898;8.602;2023-06-04T13:03:11;25.31;55.76
77052;SHT30;65980;44.898;8.602;2023-06-04T13:06:15;25.09;55.98
77052;SHT30;65980;44.898;8.602;2023-06-04T13:09:28;25.10;56.34
77052;SHT30;65980;44.898;8.602;2023-06-04T13:16:30;25.08;57.01
77052;SHT30;65980;44.898;8.602;2023-06-04T13:19:42;24.78;57.15
77052;SHT30;65980;44.898;8.602;2023-06-04T13:22:49;24.76;56.82
77052;SHT30;65980;44.898;8.602;2023-06-04T13:25:54;24.86;56.34
77052;SHT30;65980;44.898;8.602;2023-06-04T13:28:59;25.34;56.21
77052;SHT30;65980;44.898;8.602;2023-06-04T13:32:04;25.68;55.28
77052;SHT30;65980;44.898;8.602;2023-06-04T13:35:08;25.55;54.87
77052;SHT30;65980;44.898;8.602;2023-06-04T13:41:49;25.85;54.93
77052;SHT30;65980;44.898;8.602;2023-06-04T13:44:54;25.82;53.97
77052;SHT30;65980;44.898;8.602;2023-06-04T13:48:07;25.62;55.20
77052;SHT30;65980;44.898;8.602;2023-06-04T13:54:41;25.41;57.13
77052;SHT30;65980;44.898;8.602;2023-06-04T13:57:44;25.06;55.07
77052;SHT30;65980;44.898;8.602;2023-06-04T14:00:48;24.30;56.44
77052;SHT30;65980;44.898;8.602;2023-06-04T14:03:55;23.17;62.87
77052;SHT30;65980;44.898;8.602;2023-06-04T14:07:00;20.03;74.04
77052;SHT30;65980;44.898;8.602;2023-06-04T14:24:10;13.14;90.49
77052;SHT30;65980;44.898;8.602;2023-06-04T14:27:17;12.38;90.20
77052;SHT30;65980;44.898;8.602;2023-06-04T14:30:21;12.66;92.23
77052;SHT30;65980;44.898;8.602;2023-06-04T14:36:55;13.11;93.31
77052;SHT30;65980;44.898;8.602;2023-06-04T14:40:09;12.99;93.20
77052;SHT30;65980;44.898;8.602;2023-06-04T14:43:40;12.97;93.49
77052;SHT30;65980;44.898;8.602;2023-06-04T14:46:48;13.28;93.91
77052;SHT30;65980;44.898;8.602;2023-06-04T14:49:55;13.61;94.04
77052;SHT30;65980;44.898;8.602;2023-06-04T14:53:03;13.55;94.00
77052;SHT30;65980;44.898;8.602;2023-06-04T15:07:27;14.31;94.46
77052;SHT30;65980;44.898;8.602;2023-06-04T15:32:44;15.08;93.69
77052;SHT30;65980;44.898;8.602;2023-06-04T15:45:19;15.39;93.50
77052;SHT30;65980;44.898;8.602;2023-06-04T15:48:27;15.49;92.89
77052;SHT30;65980;44.898;8.602;2023-06-04T15:51:33;15.54;92.31
77052;SHT30;65980;44.898;8.602;2023-06-04T15:54:37;15.55;92.37
77052;SHT30;65980;44.898;8.602;2023-06-04T15:57:41;15.65;91.63
77052;SHT30;65980;44.898;8.602;2023-06-04T16:00:45;15.66;91.29
77052;SHT30;65980;44.898;8.602;2023-06-04T16:03:49;15.72;91.30
77052;SHT30;65980;44.898;8.602;2023-06-04T16:06:53;15.70;91.72
77052;SHT30;65980;44.898;8.602;2023-06-04T16:09:58;15.72;91.69
77052;SHT30;65980;44.898;8.602;2023-06-04T16:13:07;15.80;92.18
77052;SHT30;65980;44.898;8.602;2023-06-04T16:16:14;15.82;92.26
77052;SHT30;65980;44.898;8.602;2023-06-04T16:19:19;15.93;92.34
77052;SHT30;65980;44.898;8.602;2023-06-04T16:22:23;15.93;92.34
77052;SHT30;65980;44.898;8.602;2023-06-04T16:25:28;15.96;92.38
77052;SHT30;65980;44.898;8.602;2023-06-04T16:28:33;16.03;92.35
77052;SHT30;65980;44.898;8.602;2023-06-04T16:31:37;16.10;92.27
77052;SHT30;65980;44.898;8.602;2023-06-04T16:34:42;16.13;92.04
77052;SHT30;65980;44.898;8.602;2023-06-04T16:37:47;16.18;91.99
77052;SHT30;65980;44.898;8.602;2023-06-04T16:40:53;16.22;91.90
77052;SHT30;65980;44.898;8.602;2023-06-04T16:43:57;16.29;92.16
77052;SHT30;65980;44.898;8.602;2023-06-04T16:47:01;16.21;92.13
77052;SHT30;65980;44.898;8.602;2023-06-04T16:50:05;16.32;92.25
77052;SHT30;65980;44.898;8.602;2023-06-04T16:53:10;16.38;92.28
77052;SHT30;65980;44.898;8.602;2023-06-04T16:56:15;16.44;92.22
77052;SHT30;65980;44.898;8.602;2023-06-04T16:59:19;16.49;91.96
77052;SHT30;65980;44.898;8.602;2023-06-04T17:02:23;16.53;91.93
77052;SHT30;65980;44.898;8.602;2023-06-04T17:05:28;16.45;91.92
77052;SHT30;65980;44.898;8.602;2023-06-04T17:08:32;16.28;91.52
77052;SHT30;65980;44.898;8.602;2023-06-04T17:11:37;16.25;91.65
77052;SHT30;65980;44.898;8.602;2023-06-04T17:14:42;16.32;91.61
77052;SHT30;65980;44.898;8.602;2023-06-04T17:17:46;16.48;91.62
77052;SHT30;65980;44.898;8.602;2023-06-04T17:20:50;16.53;91.50
77052;SHT30;65980;44.898;8.602;2023-06-04T17:23:54;16.52;91.61
77052;SHT30;65980;44.898;8.602;2023-06-04T17:27:00;16.45;91.50
77052;SHT30;65980;44.898;8.602;2023-06-04T17:30:04;16.44;91.92
77052;SHT30;65980;44.898;8.602;2023-06-04T17:33:09;16.62;91.81
77052;SHT30;65980;44.898;8.602;2023-06-04T17:36:13;16.68;91.01
77052;SHT30;65980;44.898;8.602;2023-06-04T17:39:23;16.72;91.36
77052;SHT30;65980;44.898;8.602;2023-06-04T17:42:28;16.76;91.84
77052;SHT30;65980;44.898;8.602;2023-06-04T17:45:32;16.52;91.87
77052;SHT30;65980;44.898;8.602;2023-06-04T17:48:36;16.72;91.98
77052;SHT30;65980;44.898;8.602;2023-06-04T17:51:41;16.77;91.45
77052;SHT30;65980;44.898;8.602;2023-06-04T17:54:45;16.83;91.63
77052;SHT30;65980;44.898;8.602;2023-06-04T17:57:50;16.84;91.33
77052;SHT30;65980;44.898;8.602;2023-06-04T18:00:55;16.76;91.52
77052;SHT30;65980;44.898;8.602;2023-06-04T18:04:00;16.84;91.60
77052;SHT30;65980;44.898;8.602;2023-06-04T18:07:04;16.59;91.72
77052;SHT30;65980;44.898;8.602;2023-06-04T18:10:08;16.59;92.14
77052;SHT30;65980;44.898;8.602;2023-06-04T18:13:14;16.82;92.50
77052;SHT30;65980;44.898;8.602;2023-06-04T18:16:19;16.93;92.32
77052;SHT30;65980;44.898;8.602;2023-06-04T18:19:23;17.03;92.09
77052;SHT30;65980;44.898;8.602;2023-06-04T18:22:28;17.07;91.93
77052;SHT30;65980;44.898;8.602;2023-06-04T18:25:33;17.17;91.99
77052;SHT30;65980;44.898;8.602;2023-06-04T18:28:38;17.14;91.89
77052;SHT30;65980;44.898;8.602;2023-06-04T18:31:43;17.21;91.75
77052;SHT30;65980;44.898;8.602;2023-06-04T18:34:54;17.24;91.10
77052;SHT30;65980;44.898;8.602;2023-06-04T18:37:58;17.07;89.91
77052;SHT30;65980;44.898;8.602;2023-06-04T18:41:03;16.99;91.05
77052;SHT30;65980;44.898;8.602;2023-06-04T18:44:07;17.06;91.27
77052;SHT30;65980;44.898;8.602;2023-06-04T18:47:11;17.17;91.46
77052;SHT30;65980;44.898;8.602;2023-06-04T18:50:16;17.20;91.35
77052;SHT30;65980;44.898;8.602;2023-06-04T18:53:23;17.21;91.34
77052;SHT30;65980;44.898;8.602;2023-06-04T18:56:32;17.23;91.39
77052;SHT30;65980;44.898;8.602;2023-06-04T18:59:43;17.16;91.30
77052;SHT30;65980;44.898;8.602;2023-06-04T19:02:51;17.16;91.41
77052;SHT30;65980;44.898;8.602;2023-06-04T19:05:58;17.18;91.18
77052;SHT30;65980;44.898;8.602;2023-06-04T19:30:54;17.10;91.45
77052;SHT30;65980;44.898;8.602;2023-06-04T19:33:59;17.18;91.25
77052;SHT30;65980;44.898;8.602;2023-06-04T19:37:03;17.21;90.90
77052;SHT30;65980;44.898;8.602;2023-06-04T19:40:08;17.13;90.88
77052;SHT30;65980;44.898;8.602;2023-06-04T19:43:12;17.14;90.59
77052;SHT30;65980;44.898;8.602;2023-06-04T19:46:18;17.11;90.82
77052;SHT30;65980;44.898;8.602;2023-06-04T19:49:22;17.14;90.58
77052;SHT30;65980;44.898;8.602;2023-06-04T19:52:26;17.08;88.86
77052;SHT30;65980;44.898;8.602;2023-06-04T19:55:30;16.99;88.85
77052;SHT30;65980;44.898;8.602;2023-06-04T19:58:34;16.94;90.06
77052;SHT30;65980;44.898;8.602;2023-06-04T20:01:39;16.91;90.85
77052;SHT30;65980;44.898;8.602;2023-06-04T20:04:44;16.96;90.55
77052;SHT30;65980;44.898;8.602;2023-06-04T20:07:48;16.89;90.04
77052;SHT30;65980;44.898;8.602;2023-06-04T20:10:52;16.93;90.56
77052;SHT30;65980;44.898;8.602;2023-06-04T20:14:00;16.97;90.73
77052;SHT30;65980;44.898;8.602;2023-06-04T20:17:07;16.82;90.68
77052;SHT30;65980;44.898;8.602;2023-06-04T20:20:11;16.80;91.18
77052;SHT30;65980;44.898;8.602;2023-06-04T20:23:17;16.91;91.09
77052;SHT30;65980;44.898;8.602;2023-06-04T20:26:27;16.51;91.37
77052;SHT30;65980;44.898;8.602;2023-06-04T20:29:37;16.62;92.09
77052;SHT30;65980;44.898;8.602;2023-06-04T20:32:42;16.73;92.15
77052;SHT30;65980;44.898;8.602;2023-06-04T20:35:50;16.73;91.68
77052;SHT30;65980;44.898;8.602;2023-06-04T20:39:08;16.76;91.61
77052;SHT30;65980;44.898;8.602;2023-06-04T20:42:18;16.86;91.76
77052;SHT30;65980;44.898;8.602;2023-06-04T20:45:33;16.97;91.73
77052;SHT30;65980;44.898;8.602;2023-06-04T20:48:49;17.03;91.38
77052;SHT30;65980;44.898;8.602;2023-06-04T20:52:01;17.04;91.28
77052;SHT30;65980;44.898;8.602;2023-06-04T20:55:08;17.10;91.00
77052;SHT30;65980;44.898;8.602;2023-06-04T20:58:40;17.02;90.39
77052;SHT30;65980;44.898;8.602;2023-06-04T21:01:49;16.87;90.83
77052;SHT30;65980;44.898;8.602;2023-06-04T21:08:59;16.97;90.99
77052;SHT30;65980;44.898;8.602;2023-06-04T21:12:04;16.96;90.88
77052;SHT30;65980;44.898;8.602;2023-06-04T21:18:42;17.00;91.03
77052;SHT30;65980;44.898;8.602;2023-06-04T21:25:21;16.94;90.76
77052;SHT30;65980;44.898;8.602;2023-06-04T21:28:37;16.97;90.23
77052;SHT30;65980;44.898;8.602;2023-06-04T21:31:45;16.97;89.12
77052;SHT30;65980;44.898;8.602;2023-06-04T21:42:14;16.96;90.77
77052;SHT30;65980;44.898;8.602;2023-06-04T21:52:29;17.02;90.67
77052;SHT30;65980;44.898;8.602;2023-06-04T21:55:45;17.02;90.60
77052;SHT30;65980;44.898;8.602;2023-06-04T21:58:53;17.04;90.88
77052;SHT30;65980;44.898;8.602;2023-06-04T22:12:37;17.34;91.13
77052;SHT30;65980;44.898;8.602;2023-06-04T22:15:41;17.36;90.79
77052;SHT30;65980;44.898;8.602;2023-06-04T22:22:27;17.21;90.36
77052;SHT30;65980;44.898;8.602;2023-06-04T22:25:34;17.31;90.77
77052;SHT30;65980;44.898;8.602;2023-06-04T22:32:10;17.32;90.25
77052;SHT30;65980;44.898;8.602;2023-06-04T22:39:12;17.34;89.88
77052;SHT30;65980;44.898;8.602;2023-06-04T22:45:58;17.25;90.10
77052;SHT30;65980;44.898;8.602;2023-06-04T22:49:34;17.27;90.69
77052;SHT30;65980;44.898;8.602;2023-06-04T22:52:41;17.28;90.46
77052;SHT30;65980;44.898;8.602;2023-06-04T22:59:16;17.35;90.40
77052;SHT30;65980;44.898;8.602;2023-06-04T23:02:28;17.45;90.20
77052;SHT30;65980;44.898;8.602;2023-06-04T23:06:02;17.49;89.64
77052;SHT30;65980;44.898;8.602;2023-06-04T23:09:13;17.48;90.24
77052;SHT30;65980;44.898;8.602;2023-06-04T23:12:30;17.44;90.52
77052;SHT30;65980;44.898;8.602;2023-06-04T23:19:25;17.46;90.31
77052;SHT30;65980;44.898;8.602;2023-06-04T23:22:35;17.61;90.28
77052;SHT30;65980;44.898;8.602;2023-06-04T23:29:20;17.41;90.48
77052;SHT30;65980;44.898;8.602;2023-06-04T23:32:26;17.16;90.65
77052;SHT30;65980;44.898;8.602;2023-06-04T23:35:39;17.25;90.97
77052;SHT30;65980;44.898;8.602;2023-06-04T23:38:47;16.94;90.26
77052;SHT30;65980;44.898;8.602;2023-06-04T23:41:54;17.18;90.49
77052;SHT30;65980;44.898;8.602;2023-06-04T23:45:08;17.08;90.33
77052;SHT30;65980;44.898;8.602;2023-06-04T23:48:22;16.93;89.97
77052;SHT30;65980;44.898;8.602;2023-06-04T23:51:29;16.83;90.78
77052;SHT30;65980;44.898;8.602;2023-06-04T23:54:39;16.83;90.61
77052;SHT30;65980;44.898;8.602;2023-06-04T23:58:01;16.96;90.98
